sensor_id;sensor_type;location;lat;lon;timestamp;pressure;altitude;pressure_sealevel;temperature;humidity
49178;BME280;35016;55.674;37.468;2022-12-16T06:07:51;98954.13;;;-1.53;74.00
49178;BME280;35016;55.674;37.468;2022-12-16T06:10:37;98935.47;;;-1.60;74.05
49178;BME280;35016;55.674;37.468;2022-12-16T06:13:22;98948.34;;;-1.64;74.07
49178;BME280;35016;55.674;37.468;2022-12-16T06:16:08;98953.66;;;-1.64;73.97
49178;BME280;35016;55.674;37.468;2022-12-16T06:18:53;98945.88;;;-1.65;73.88
49178;BME280;35016;55.674;37.468;2022-12-16T06:21:39;98972.66;;;-1.67;73.60
49178;BME280;35016;55.674;37.468;2022-12-16T06:24:24;98988.34;;;-1.72;73.52
49178;BME280;35016;55.674;37.468;2022-12-16T06:27:10;98979.56;;;-1.72;73.50
49178;BME280;35016;55.674;37.468;2022-12-16T06:29:56;99012.28;;;-1.72;73.11
49178;BME280;35016;55.674;37.468;2022-12-16T06:32:41;99045.34;;;-1.74;73.39
49178;BME280;35016;55.674;37.468;2022-12-16T06:35:31;99078.81;;;-1.80;73.29
49178;BME280;35016;55.674;37.468;2022-12-16T06:38:16;99040.69;;;-1.94;73.07
49178;BME280;35016;55.674;37.468;2022-12-16T06:41:02;99047.22;;;-1.96;72.95
49178;BME280;35016;55.674;37.468;2022-12-16T06:44:07;99049.06;;;-1.97;72.72
49178;BME280;35016;55.674;37.468;2022-12-16T06:46:52;99055.75;;;-2.01;72.76
49178;BME280;35016;55.674;37.468;2022-12-16T06:49:38;99075.66;;;-2.11;72.80
49178;BME280;35016;55.674;37.468;2022-12-16T06:52:24;99080.16;;;-2.12;72.68
49178;BME280;35016;55.674;37.468;2022-12-16T06:55:10;99078.69;;;-2.14;72.57
49178;BME280;35016;55.674;37.468;2022-12-16T06:57:57;99076.59;;;-2.19;72.85
49178;BME280;35016;55.674;37.468;2022-12-16T07:00:43;99107.28;;;-2.16;72.86
49178;BME280;35016;55.674;37.468;2022-12-16T07:03:29;99098.41;;;-2.24;72.78
49178;BME280;35016;55.674;37.468;2022-12-16T07:06:16;99105.75;;;-2.26;73.08
49178;BME280;35016;55.674;37.468;2022-12-16T07:09:05;99105.81;;;-2.19;72.98
49178;BME280;35016;55.674;37.468;2022-12-16T07:11:51;99093.66;;;-2.28;72.92
49178;BME280;35016;55.674;37.468;2022-12-16T07:14:37;99127.44;;;-2.22;72.86
49178;BME280;35016;55.674;37.468;2022-12-16T07:17:22;99133.50;;;-2.28;72.73
49178;BME280;35016;55.674;37.468;2022-12-16T07:20:08;99138.44;;;-2.25;72.77
49178;BME280;35016;55.674;37.468;2022-12-16T07:22:55;99145.94;;;-2.29;72.87
49178;BME280;35016;55.674;37.468;2022-12-16T07:25:48;99144.38;;;-2.38;72.66
49178;BME280;35016;55.674;37.468;2022-12-16T07:29:02;99166.91;;;-2.34;72.18
49178;BME280;35016;55.674;37.468;2022-12-16T07:31:49;99166.91;;;-2.34;72.15
49178;BME280;35016;55.674;37.468;2022-12-16T07:34:39;99169.09;;;-2.37;72.07
49178;BME280;35016;55.674;37.468;2022-12-16T07:37:26;99188.69;;;-2.38;72.54
49178;BME280;35016;55.674;37.468;2022-12-16T07:40:20;99182.66;;;-2.47;72.37
49178;BME280;35016;55.674;37.468;2022-12-16T07:43:09;99166.19;;;-2.57;72.24
49178;BME280;35016;55.674;37.468;2022-12-16T07:45:59;99184.59;;;-2.56;72.18
49178;BME280;35016;55.674;37.468;2022-12-16T07:52:33;99202.34;;;-2.41;72.30
49178;BME280;35016;55.674;37.468;2022-12-16T07:55:35;99212.59;;;-2.38;72.07
49178;BME280;35016;55.674;37.468;2022-12-16T07:58:24;99228.59;;;-2.32;71.98
49178;BME280;35016;55.674;37.468;2022-12-16T08:01:28;99256.75;;;-2.23;72.29
49178;BME280;35016;55.674;37.468;2022-12-16T08:04:21;99210.22;;;-2.48;72.18
49178;BME280;35016;55.674;37.468;2022-12-16T08:07:10;99216.44;;;-2.41;71.79
49178;BME280;35016;55.674;37.468;2022-12-16T08:10:17;99274.97;;;-2.20;72.19
49178;BME280;35016;55.674;37.468;2022-12-16T08:13:15;99220.00;;;-2.34;71.40
49178;BME280;35016;55.674;37.468;2022-12-16T08:16:22;99223.41;;;-2.55;71.20
49178;BME280;35016;55.674;37.468;2022-12-16T08:19:52;99218.56;;;-2.51;71.44
49178;BME280;35016;55.674;37.468;2022-12-16T08:22:39;99265.22;;;-2.57;71.61
49178;BME280;35016;55.674;37.468;2022-12-16T08:25:28;99242.53;;;-2.59;71.80
49178;BME280;35016;55.674;37.468;2022-12-16T08:28:18;99227.69;;;-2.68;72.00
49178;BME280;35016;55.674;37.468;2022-12-16T08:35:05;99275.31;;;-2.52;72.38
49178;BME280;35016;55.674;37.468;2022-12-16T08:39:06;99286.56;;;-2.50;72.14
49178;BME280;35016;55.674;37.468;2022-12-16T08:42:29;99284.56;;;-2.48;72.02
49178;BME280;35016;55.674;37.468;2022-12-16T08:45:43;99293.28;;;-2.62;72.10
49178;BME280;35016;55.674;37.468;2022-12-16T08:53:11;99310.19;;;-2.40;72.55
49178;BME280;35016;55.674;37.468;2022-12-16T08:56:11;99313.94;;;-2.35;72.28
49178;BME280;35016;55.674;37.468;2022-12-16T09:03:00;99300.84;;;-2.51;71.32
49178;BME280;35016;55.674;37.468;2022-12-16T09:05:45;99338.84;;;-2.36;71.66
49178;BME280;35016;55.674;37.468;2022-12-16T09:08:39;99340.13;;;-2.32;71.92
49178;BME280;35016;55.674;37.468;2022-12-16T09:11:24;99345.97;;;-2.36;71.73
49178;BME280;35016;55.674;37.468;2022-12-16T09:14:10;99349.53;;;-2.44;71.68
49178;BME280;35016;55.674;37.468;2022-12-16T09:16:56;99353.03;;;-2.43;71.86
49178;BME280;35016;55.674;37.468;2022-12-16T09:19:42;99335.16;;;-2.50;71.27
49178;BME280;35016;55.674;37.468;2022-12-16T09:22:29;99353.03;;;-2.43;71.55
49178;BME280;35016;55.674;37.468;2022-12-16T09:25:15;99359.53;;;-2.46;71.53
49178;BME280;35016;55.674;37.468;2022-12-16T09:28:11;99354.94;;;-2.52;71.40
49178;BME280;35016;55.674;37.468;2022-12-16T09:30:57;99352.34;;;-2.60;71.07
49178;BME280;35016;55.674;37.468;2022-12-16T09:33:46;99366.28;;;-2.58;71.23
49178;BME280;35016;55.674;37.468;2022-12-16T09:36:31;99349.38;;;-2.65;71.47
49178;BME280;35016;55.674;37.468;2022-12-16T09:39:18;99379.19;;;-2.55;71.56
49178;BME280;35016;55.674;37.468;2022-12-16T09:42:20;99376.63;;;-2.48;71.06
49178;BME280;35016;55.674;37.468;2022-12-16T09:51:02;99378.03;;;-2.38;70.59
49178;BME280;35016;55.674;37.468;2022-12-16T09:53:52;99388.00;;;-2.40;70.61
49178;BME280;35016;55.674;37.468;2022-12-16T09:56:39;99386.91;;;-2.45;70.48
49178;BME280;35016;55.674;37.468;2022-12-16T09:59:34;99410.25;;;-2.41;70.24
49178;BME280;35016;55.674;37.468;2022-12-16T10:02:23;99398.81;;;-2.64;70.78
49178;BME280;35016;55.674;37.468;2022-12-16T10:05:14;99418.47;;;-2.51;71.04
49178;BME280;35016;55.674;37.468;2022-12-16T10:08:54;99408.38;;;-2.55;70.07
49178;BME280;35016;55.674;37.468;2022-12-16T10:11:56;99427.59;;;-2.53;70.68
49178;BME280;35016;55.674;37.468;2022-12-16T10:14:52;99429.66;;;-2.40;70.41
49178;BME280;35016;55.674;37.468;2022-12-16T10:17:44;99437.44;;;-2.39;70.69
49178;BME280;35016;55.674;37.468;2022-12-16T10:20:56;99441.09;;;-2.40;69.79
49178;BME280;35016;55.674;37.468;2022-12-16T10:23:55;99440.28;;;-2.40;69.98
49178;BME280;35016;55.674;37.468;2022-12-16T10:27:05;99444.19;;;-2.51;69.67
49178;BME280;35016;55.674;37.468;2022-12-16T10:29:54;99454.97;;;-2.53;70.21
49178;BME280;35016;55.674;37.468;2022-12-16T10:32:45;99459.09;;;-2.50;70.19
49178;BME280;35016;55.674;37.468;2022-12-16T10:35:46;99451.50;;;-2.53;69.87
49178;BME280;35016;55.674;37.468;2022-12-16T10:38:52;99472.03;;;-2.47;70.03
49178;BME280;35016;55.674;37.468;2022-12-16T10:41:42;99486.66;;;-2.51;69.86
49178;BME280;35016;55.674;37.468;2022-12-16T10:44:53;99481.69;;;-2.54;68.07
49178;BME280;35016;55.674;37.468;2022-12-16T10:47:40;99470.94;;;-2.61;69.87
49178;BME280;35016;55.674;37.468;2022-12-16T10:50:27;99475.38;;;-2.53;69.51
49178;BME280;35016;55.674;37.468;2022-12-16T10:53:17;99484.53;;;-2.56;69.00
49178;BME280;35016;55.674;37.468;2022-12-16T10:56:17;99495.22;;;-2.41;68.82
49178;BME280;35016;55.674;37.468;2022-12-16T10:59:19;99501.81;;;-2.37;68.93
49178;BME280;35016;55.674;37.468;2022-12-16T11:02:18;99524.72;;;-2.36;68.64
49178;BME280;35016;55.674;37.468;2022-12-16T11:05:31;99525.06;;;-2.39;67.55
49178;BME280;35016;55.674;37.468;2022-12-16T11:08:37;99519.63;;;-2.45;66.93
49178;BME280;35016;55.674;37.468;2022-12-16T11:11:34;99544.06;;;-2.50;68.27
49178;BME280;35016;55.674;37.468;2022-12-16T11:14:26;99531.03;;;-2.68;68.14
49178;BME280;35016;55.674;37.468;2022-12-16T11:18:01;99556.97;;;-2.78;66.89
49178;BME280;35016;55.674;37.468;2022-12-16T11:21:15;99563.97;;;-2.85;67.07
49178;BME280;35016;55.674;37.468;2022-12-16T11:24:15;99554.38;;;-3.02;67.74
49178;BME280;35016;55.674;37.468;2022-12-16T11:27:25;99577.25;;;-3.01;68.30
49178;BME280;35016;55.674;37.468;2022-12-16T11:33:13;99587.56;;;-3.06;67.80
49178;BME280;35016;55.674;37.468;2022-12-16T11:36:15;99582.94;;;-3.21;68.05
49178;BME280;35016;55.674;37.468;2022-12-16T11:39:07;99597.38;;;-3.15;68.36
49178;BME280;35016;55.674;37.468;2022-12-16T11:41:58;99612.63;;;-3.17;65.84
49178;BME280;35016;55.674;37.468;2022-12-16T11:44:56;99607.13;;;-3.24;67.26
49178;BME280;35016;55.674;37.468;2022-12-16T11:47:53;99597.41;;;-3.39;68.16
49178;BME280;35016;55.674;37.468;2022-12-16T11:50:56;99584.31;;;-3.49;67.02
49178;BME280;35016;55.674;37.468;2022-12-16T11:54:27;99617.91;;;-3.25;66.77
49178;BME280;35016;55.674;37.468;2022-12-16T11:58:44;99665.81;;;-3.27;67.48
49178;BME280;35016;55.674;37.468;2022-12-16T12:01:54;99640.63;;;-3.39;66.75
49178;BME280;35016;55.674;37.468;2022-12-16T12:04:49;99637.16;;;-3.48;68.14
49178;BME280;35016;55.674;37.468;2022-12-16T12:08:09;99641.94;;;-3.27;67.76
49178;BME280;35016;55.674;37.468;2022-12-16T12:26:43;99651.22;;;-3.47;68.51
49178;BME280;35016;55.674;37.468;2022-12-16T12:29:55;99652.22;;;-3.48;67.89
49178;BME280;35016;55.674;37.468;2022-12-16T12:49:00;99663.97;;;-3.51;67.73
49178;BME280;35016;55.674;37.468;2022-12-16T12:58:14;99676.44;;;-3.43;68.74
49178;BME280;35016;55.674;37.468;2022-12-16T13:01:04;99674.13;;;-3.46;68.10
49178;BME280;35016;55.674;37.468;2022-12-16T13:06:53;99666.63;;;-3.51;68.50
49178;BME280;35016;55.674;37.468;2022-12-16T13:09:40;99683.22;;;-3.40;68.33
49178;BME280;35016;55.674;37.468;2022-12-16T13:12:32;99695.97;;;-3.36;68.67
49178;BME280;35016;55.674;37.468;2022-12-16T13:15:40;99700.94;;;-3.33;67.69
49178;BME280;35016;55.674;37.468;2022-12-16T13:18:30;99713.22;;;-3.32;68.63
49178;BME280;35016;55.674;37.468;2022-12-16T13:24:43;99719.34;;;-3.23;68.77
49178;BME280;35016;55.674;37.468;2022-12-16T13:27:46;99709.88;;;-3.26;68.08
49178;BME280;35016;55.674;37.468;2022-12-16T13:30:37;99716.03;;;-3.25;68.19
49178;BME280;35016;55.674;37.468;2022-12-16T13:33:29;99725.13;;;-3.20;68.08
49178;BME280;35016;55.674;37.468;2022-12-16T13:36:17;99743.53;;;-3.18;68.86
49178;BME280;35016;55.674;37.468;2022-12-16T13:39:23;99731.97;;;-3.17;68.01
49178;BME280;35016;55.674;37.468;2022-12-16T13:42:51;99745.88;;;-3.15;68.18
49178;BME280;35016;55.674;37.468;2022-12-16T13:45:41;99754.00;;;-3.17;68.57
49178;BME280;35016;55.674;37.468;2022-12-16T13:48:40;99744.53;;;-3.19;68.16
49178;BME280;35016;55.674;37.468;2022-12-16T13:57:18;99769.53;;;-3.22;68.60
49178;BME280;35016;55.674;37.468;2022-12-16T14:00:19;99776.22;;;-3.18;68.24
49178;BME280;35016;55.674;37.468;2022-12-16T14:03:17;99765.59;;;-3.18;68.20
49178;BME280;35016;55.674;37.468;2022-12-16T14:06:09;99769.38;;;-3.20;68.75
49178;BME280;35016;55.674;37.468;2022-12-16T14:08:57;99784.78;;;-3.24;68.52
49178;BME280;35016;55.674;37.468;2022-12-16T14:11:57;99768.09;;;-3.16;68.46
49178;BME280;35016;55.674;37.468;2022-12-16T14:15:01;99785.97;;;-3.02;68.70
49178;BME280;35016;55.674;37.468;2022-12-16T14:18:10;99787.47;;;-2.99;68.66
49178;BME280;35016;55.674;37.468;2022-12-16T14:21:10;99794.59;;;-2.92;68.85
49178;BME280;35016;55.674;37.468;2022-12-16T14:24:07;99782.50;;;-2.94;69.07
49178;BME280;35016;55.674;37.468;2022-12-16T14:26:55;99787.00;;;-2.87;69.10
49178;BME280;35016;55.674;37.468;2022-12-16T14:29:47;99790.16;;;-2.83;69.31
49178;BME280;35016;55.674;37.468;2022-12-16T14:32:34;99788.66;;;-2.86;68.87
49178;BME280;35016;55.674;37.468;2022-12-16T14:35:49;99777.53;;;-2.89;68.79
49178;BME280;35016;55.674;37.468;2022-12-16T14:38:37;99785.50;;;-2.81;69.19
49178;BME280;35016;55.674;37.468;2022-12-16T14:41:34;99798.94;;;-2.74;68.61
49178;BME280;35016;55.674;37.468;2022-12-16T14:44:23;99769.91;;;-2.84;69.07
49178;BME280;35016;55.674;37.468;2022-12-16T14:47:20;99804.72;;;-2.63;68.10
49178;BME280;35016;55.674;37.468;2022-12-16T14:50:36;99797.91;;;-2.65;68.06
49178;BME280;35016;55.674;37.468;2022-12-16T14:53:31;99802.72;;;-2.69;68.79
49178;BME280;35016;55.674;37.468;2022-12-16T14:56:29;99839.88;;;-2.69;68.96
49178;BME280;35016;55.674;37.468;2022-12-16T14:59:28;99813.00;;;-2.66;68.94
49178;BME280;35016;55.674;37.468;2022-12-16T15:02:29;99806.53;;;-2.63;68.14
49178;BME280;35016;55.674;37.468;2022-12-16T15:05:21;99809.03;;;-2.62;68.64
49178;BME280;35016;55.674;37.468;2022-12-16T15:08:11;99802.56;;;-2.67;68.87
49178;BME280;35016;55.674;37.468;2022-12-16T15:10:58;99803.22;;;-2.65;69.16
49178;BME280;35016;55.674;37.468;2022-12-16T15:13:56;99821.13;;;-2.67;68.40
49178;BME280;35016;55.674;37.468;2022-12-16T15:16:47;99832.91;;;-2.62;68.98
49178;BME280;35016;55.674;37.468;2022-12-16T15:19:46;99816.81;;;-2.68;68.62
49178;BME280;35016;55.674;37.468;2022-12-16T15:22:46;99832.09;;;-2.70;68.69
49178;BME280;35016;55.674;37.468;2022-12-16T15:25:33;99846.19;;;-2.70;68.92
49178;BME280;35016;55.674;37.468;2022-12-16T15:28:38;99836.06;;;-2.74;68.90
49178;BME280;35016;55.674;37.468;2022-12-16T15:31:39;99830.94;;;-2.84;69.03
49178;BME280;35016;55.674;37.468;2022-12-16T15:34:47;99831.06;;;-2.94;68.92
49178;BME280;35016;55.674;37.468;2022-12-16T15:37:40;99848.03;;;-2.87;68.87
49178;BME280;35016;55.674;37.468;2022-12-16T15:40:34;99835.56;;;-3.02;68.79
49178;BME280;35016;55.674;37.468;2022-12-16T15:43:32;99847.50;;;-2.90;69.20
49178;BME280;35016;55.674;37.468;2022-12-16T15:46:27;99818.81;;;-3.11;69.46
49178;BME280;35016;55.674;37.468;2022-12-16T15:52:31;99842.34;;;-3.00;68.90
49178;BME280;35016;55.674;37.468;2022-12-16T16:01:38;99837.34;;;-3.19;69.16
49178;BME280;35016;55.674;37.468;2022-12-16T16:04:30;99851.97;;;-3.07;69.65
49178;BME280;35016;55.674;37.468;2022-12-16T16:07:22;99846.50;;;-3.05;69.44
49178;BME280;35016;55.674;37.468;2022-12-16T16:10:23;99829.25;;;-3.09;68.55
49178;BME280;35016;55.674;37.468;2022-12-16T16:13:11;99857.28;;;-2.99;68.76
49178;BME280;35016;55.674;37.468;2022-12-16T16:15:58;99839.53;;;-3.06;68.92
49178;BME280;35016;55.674;37.468;2022-12-16T16:18:46;99832.72;;;-3.09;69.09
49178;BME280;35016;55.674;37.468;2022-12-16T16:21:33;99849.16;;;-3.05;68.86
49178;BME280;35016;55.674;37.468;2022-12-16T16:24:19;99839.53;;;-3.15;68.60
49178;BME280;35016;55.674;37.468;2022-12-16T16:27:11;99844.84;;;-3.06;68.74
49178;BME280;35016;55.674;37.468;2022-12-16T16:30:00;99838.69;;;-3.07;69.06
49178;BME280;35016;55.674;37.468;2022-12-16T16:32:47;99835.88;;;-3.05;68.99
49178;BME280;35016;55.674;37.468;2022-12-16T16:35:59;99845.16;;;-2.93;68.81
49178;BME280;35016;55.674;37.468;2022-12-16T16:38:46;99843.50;;;-2.94;68.69
49178;BME280;35016;55.674;37.468;2022-12-16T16:41:32;99842.06;;;-2.89;68.93
49178;BME280;35016;55.674;37.468;2022-12-16T16:44:22;99842.34;;;-2.92;68.64
49178;BME280;35016;55.674;37.468;2022-12-16T16:47:14;99856.63;;;-2.93;68.64
49178;BME280;35016;55.674;37.468;2022-12-16T16:50:19;99853.97;;;-2.93;68.65
49178;BME280;35016;55.674;37.468;2022-12-16T16:53:18;99856.59;;;-3.09;68.64
49178;BME280;35016;55.674;37.468;2022-12-16T16:56:09;99836.22;;;-3.08;68.83
49178;BME280;35016;55.674;37.468;2022-12-16T16:59:03;99875.00;;;-3.07;68.47
49178;BME280;35016;55.674;37.468;2022-12-16T17:02:19;99827.88;;;-3.22;68.71
49178;BME280;35016;55.674;37.468;2022-12-16T17:05:13;99845.66;;;-3.14;68.95
49178;BME280;35016;55.674;37.468;2022-12-16T17:07:59;99855.94;;;-3.11;68.75
49178;BME280;35016;55.674;37.468;2022-12-16T17:10:46;99835.72;;;-3.12;69.33
49178;BME280;35016;55.674;37.468;2022-12-16T17:13:58;99840.84;;;-3.10;68.96
49178;BME280;35016;55.674;37.468;2022-12-16T17:16:57;99866.88;;;-2.98;69.03
49178;BME280;35016;55.674;37.468;2022-12-16T17:19:45;99822.94;;;-3.17;69.00
49178;BME280;35016;55.674;37.468;2022-12-16T17:22:33;99814.97;;;-3.25;68.94
49178;BME280;35016;55.674;37.468;2022-12-16T17:25:23;99841.66;;;-3.18;68.60
49178;BME280;35016;55.674;37.468;2022-12-16T17:28:13;99838.16;;;-3.27;68.62
49178;BME280;35016;55.674;37.468;2022-12-16T17:31:13;99818.59;;;-3.26;68.04
49178;BME280;35016;55.674;37.468;2022-12-16T17:34:24;99855.13;;;-3.03;68.74
49178;BME280;35016;55.674;37.468;2022-12-16T17:37:12;99866.41;;;-2.93;68.97
49178;BME280;35016;55.674;37.468;2022-12-16T17:40:00;99827.09;;;-3.14;68.53
49178;BME280;35016;55.674;37.468;2022-12-16T17:42:51;99851.47;;;-2.94;68.63
49178;BME280;35016;55.674;37.468;2022-12-16T17:45:40;99830.56;;;-3.14;68.33
49178;BME280;35016;55.674;37.468;2022-12-16T17:48:26;99853.63;;;-3.14;68.61
49178;BME280;35016;55.674;37.468;2022-12-16T17:51:13;99858.09;;;-2.98;68.78
49178;BME280;35016;55.674;37.468;2022-12-16T17:54:02;99859.09;;;-2.99;68.44
49178;BME280;35016;55.674;37.468;2022-12-16T17:56:55;99827.09;;;-3.14;68.86
49178;BME280;35016;55.674;37.468;2022-12-16T17:59:41;99882.81;;;-2.98;69.01
49178;BME280;35016;55.674;37.468;2022-12-16T18:02:38;99888.28;;;-2.91;68.81
49178;BME280;35016;55.674;37.468;2022-12-16T18:05:24;99886.47;;;-2.91;69.09
49178;BME280;35016;55.674;37.468;2022-12-16T18:08:11;99890.44;;;-2.95;68.94
49178;BME280;35016;55.674;37.468;2022-12-16T18:10:57;99886.78;;;-2.94;68.86
49178;BME280;35016;55.674;37.468;2022-12-16T18:13:49;99886.63;;;-2.92;68.98
49178;BME280;35016;55.674;37.468;2022-12-16T18:16:38;99873.84;;;-3.05;68.97
49178;BME280;35016;55.674;37.468;2022-12-16T18:19:24;99874.63;;;-3.21;68.94
49178;BME280;35016;55.674;37.468;2022-12-16T18:22:10;99890.44;;;-3.03;68.80
49178;BME280;35016;55.674;37.468;2022-12-16T18:24:57;99893.41;;;-3.06;69.08
49178;BME280;35016;55.674;37.468;2022-12-16T18:27:42;99903.38;;;-3.00;69.09
49178;BME280;35016;55.674;37.468;2022-12-16T18:30:28;99892.25;;;-2.95;69.54
49178;BME280;35016;55.674;37.468;2022-12-16T18:33:14;99897.41;;;-2.94;69.17
49178;BME280;35016;55.674;37.468;2022-12-16T18:36:00;99903.38;;;-2.92;69.29
49178;BME280;35016;55.674;37.468;2022-12-16T18:38:53;99893.25;;;-2.96;68.79
49178;BME280;35016;55.674;37.468;2022-12-16T18:41:41;99881.47;;;-2.94;68.97
49178;BME280;35016;55.674;37.468;2022-12-16T18:44:28;99879.81;;;-2.95;69.45
49178;BME280;35016;55.674;37.468;2022-12-16T18:47:15;99876.00;;;-2.92;68.94
49178;BME280;35016;55.674;37.468;2022-12-16T18:50:02;99872.69;;;-2.94;69.10
49178;BME280;35016;55.674;37.468;2022-12-16T18:52:56;99884.63;;;-2.90;69.00
49178;BME280;35016;55.674;37.468;2022-12-16T18:55:42;99880.84;;;-2.88;69.45
49178;BME280;35016;55.674;37.468;2022-12-16T18:58:27;99888.00;;;-2.88;68.84
49178;BME280;35016;55.674;37.468;2022-12-16T19:01:17;99894.63;;;-2.84;69.17
49178;BME280;35016;55.674;37.468;2022-12-16T19:04:04;99882.69;;;-2.88;68.53
49178;BME280;35016;55.674;37.468;2022-12-16T19:06:52;99883.19;;;-2.85;68.62
49178;BME280;35016;55.674;37.468;2022-12-16T19:09:41;99891.31;;;-2.86;68.73
49178;BME280;35016;55.674;37.468;2022-12-16T19:12:29;99904.25;;;-2.83;68.76
49178;BME280;35016;55.674;37.468;2022-12-16T19:15:18;99902.53;;;-2.92;68.85
49178;BME280;35016;55.674;37.468;2022-12-16T19:18:07;99905.88;;;-2.90;69.28
49178;BME280;35016;55.674;37.468;2022-12-16T19:20:54;99924.13;;;-2.87;69.30
49178;BME280;35016;55.674;37.468;2022-12-16T19:23:41;99938.25;;;-2.78;68.87
49178;BME280;35016;55.674;37.468;2022-12-16T19:26:30;99937.56;;;-2.81;69.21
49178;BME280;35016;55.674;37.468;2022-12-16T19:29:17;99935.59;;;-2.78;69.12
49178;BME280;35016;55.674;37.468;2022-12-16T19:32:12;99952.00;;;-2.75;68.70
49178;BME280;35016;55.674;37.468;2022-12-16T19:35:23;99965.94;;;-2.73;67.86
49178;BME280;35016;55.674;37.468;2022-12-16T19:38:13;99950.84;;;-2.81;68.52
49178;BME280;35016;55.674;37.468;2022-12-16T19:40:59;99963.78;;;-2.77;68.50
49178;BME280;35016;55.674;37.468;2022-12-16T19:43:44;99976.38;;;-2.79;68.99
49178;BME280;35016;55.674;37.468;2022-12-16T19:46:32;99972.75;;;-2.78;68.81
49178;BME280;35016;55.674;37.468;2022-12-16T19:49:39;100004.59;;;-2.70;68.35
49178;BME280;35016;55.674;37.468;2022-12-16T19:52:28;99984.69;;;-2.74;68.42
49178;BME280;35016;55.674;37.468;2022-12-16T19:55:13;99992.31;;;-2.71;68.80
49178;BME280;35016;55.674;37.468;2022-12-16T19:58:00;99994.13;;;-2.80;68.71
49178;BME280;35016;55.674;37.468;2022-12-16T20:00:46;99991.31;;;-2.78;68.89
49178;BME280;35016;55.674;37.468;2022-12-16T20:03:31;99983.03;;;-2.67;68.63
49178;BME280;35016;55.674;37.468;2022-12-16T20:06:22;99959.81;;;-2.73;68.65
49178;BME280;35016;55.674;37.468;2022-12-16T20:09:08;99968.28;;;-2.70;68.79
49178;BME280;35016;55.674;37.468;2022-12-16T20:11:54;99972.75;;;-2.70;68.63
49178;BME280;35016;55.674;37.468;2022-12-16T20:14:40;99967.94;;;-2.67;68.76
49178;BME280;35016;55.674;37.468;2022-12-16T20:17:25;99977.75;;;-2.67;68.88
49178;BME280;35016;55.674;37.468;2022-12-16T20:20:11;99987.53;;;-2.68;68.81
49178;BME280;35016;55.674;37.468;2022-12-16T20:22:57;99977.91;;;-2.61;69.14
49178;BME280;35016;55.674;37.468;2022-12-16T20:25:55;99969.13;;;-2.61;68.63
49178;BME280;35016;55.674;37.468;2022-12-16T20:28:42;99963.69;;;-2.60;68.99
49178;BME280;35016;55.674;37.468;2022-12-16T20:31:28;99973.47;;;-2.52;68.54
49178;BME280;35016;55.674;37.468;2022-12-16T20:34:13;99953.72;;;-2.50;68.92
49178;BME280;35016;55.674;37.468;2022-12-16T20:36:59;99923.31;;;-2.63;68.75
49178;BME280;35016;55.674;37.468;2022-12-16T20:39:45;99940.13;;;-2.46;68.51
49178;BME280;35016;55.674;37.468;2022-12-16T20:42:31;99951.91;;;-2.49;68.89
49178;BME280;35016;55.674;37.468;2022-12-16T20:45:19;99937.13;;;-2.60;68.86
49178;BME280;35016;55.674;37.468;2022-12-16T20:48:06;99952.22;;;-2.44;68.72
49178;BME280;35016;55.674;37.468;2022-12-16T20:50:57;99964.84;;;-2.46;68.26
49178;BME280;35016;55.674;37.468;2022-12-16T20:53:52;99960.34;;;-2.45;68.52
49178;BME280;35016;55.674;37.468;2022-12-16T20:56:41;99951.06;;;-2.50;68.69
49178;BME280;35016;55.674;37.468;2022-12-16T20:59:27;99941.44;;;-2.51;68.75
49178;BME280;35016;55.674;37.468;2022-12-16T21:02:14;99960.69;;;-2.48;68.59
49178;BME280;35016;55.674;37.468;2022-12-16T21:05:01;99952.72;;;-2.48;68.84
49178;BME280;35016;55.674;37.468;2022-12-16T21:07:47;99930.31;;;-2.54;68.59
49178;BME280;35016;55.674;37.468;2022-12-16T21:10:43;99938.47;;;-2.47;68.68
49178;BME280;35016;55.674;37.468;2022-12-16T21:13:29;99936.13;;;-2.51;68.72
49178;BME280;35016;55.674;37.468;2022-12-16T21:16:15;99924.34;;;-2.48;68.89
49178;BME280;35016;55.674;37.468;2022-12-16T21:19:00;99922.53;;;-2.47;68.56
49178;BME280;35016;55.674;37.468;2022-12-16T21:21:46;99918.53;;;-2.52;68.67
49178;BME280;35016;55.674;37.468;2022-12-16T21:24:32;99923.69;;;-2.50;68.64
49178;BME280;35016;55.674;37.468;2022-12-16T21:27:17;99921.38;;;-2.53;68.55
49178;BME280;35016;55.674;37.468;2022-12-16T21:30:03;99910.38;;;-2.66;68.92
49178;BME280;35016;55.674;37.468;2022-12-16T21:32:49;99937.78;;;-2.58;68.58
49178;BME280;35016;55.674;37.468;2022-12-16T21:35:41;99917.22;;;-2.56;68.68
49178;BME280;35016;55.674;37.468;2022-12-16T21:38:27;99919.38;;;-2.59;68.74
49178;BME280;35016;55.674;37.468;2022-12-16T21:41:12;99944.75;;;-2.57;68.80
49178;BME280;35016;55.674;37.468;2022-12-16T21:43:58;99921.88;;;-2.58;68.36
49178;BME280;35016;55.674;37.468;2022-12-16T21:46:43;99913.72;;;-2.56;68.88
49178;BME280;35016;55.674;37.468;2022-12-16T21:49:29;99911.22;;;-2.66;68.59
49178;BME280;35016;55.674;37.468;2022-12-16T21:52:16;99917.53;;;-2.67;68.73
49178;BME280;35016;55.674;37.468;2022-12-16T21:55:02;99927.31;;;-2.67;68.75
49178;BME280;35016;55.674;37.468;2022-12-16T21:57:48;99945.22;;;-2.61;69.03
49178;BME280;35016;55.674;37.468;2022-12-16T22:00:36;99926.97;;;-2.64;68.56
49178;BME280;35016;55.674;37.468;2022-12-16T22:03:33;99929.00;;;-2.58;68.66
49178;BME280;35016;55.674;37.468;2022-12-16T22:06:28;99904.41;;;-2.68;68.53
49178;BME280;35016;55.674;37.468;2022-12-16T22:09:17;99905.25;;;-2.68;68.41
49178;BME280;35016;55.674;37.468;2022-12-16T22:12:03;99924.16;;;-2.71;68.32
49178;BME280;35016;55.674;37.468;2022-12-16T22:15:10;99913.03;;;-2.74;68.31
49178;BME280;35016;55.674;37.468;2022-12-16T22:17:56;99924.66;;;-2.75;68.54
49178;BME280;35016;55.674;37.468;2022-12-16T22:20:42;99924.66;;;-2.75;68.90
49178;BME280;35016;55.674;37.468;2022-12-16T22:23:33;99911.88;;;-2.80;68.80
49178;BME280;35016;55.674;37.468;2022-12-16T22:26:21;99890.66;;;-2.80;68.69
49178;BME280;35016;55.674;37.468;2022-12-16T22:29:07;99902.09;;;-2.79;68.69
49178;BME280;35016;55.674;37.468;2022-12-16T22:31:52;99897.09;;;-2.83;68.77
49178;BME280;35016;55.674;37.468;2022-12-16T22:34:38;99904.56;;;-2.78;68.76
49178;BME280;35016;55.674;37.468;2022-12-16T22:37:24;99912.53;;;-2.70;68.52